sensor_id;sensor_type;location;lat;lon;timestamp;pressure;altitude;pressure_sealevel;temperature;humidity
42519;BME280;28147;47.520;18.920;2023-10-19T00:01:10;97957.38;;;14.93;40.11
42519;BME280;28147;47.520;18.920;2023-10-19T00:03:37;97954.69;;;14.93;40.34
42519;BME280;28147;47.520;18.920;2023-10-19T00:06:03;97946.09;;;14.91;40.58
42519;BME280;28147;47.520;18.920;2023-10-19T00:08:30;97948.00;;;14.85;40.68
42519;BME280;28147;47.520;18.920;2023-10-19T00:11:06;97944.16;;;15.06;40.39
42519;BME280;28147;47.520;18.920;2023-10-19T00:13:33;97938.00;;;15.06;40.24
42519;BME280;28147;47.520;18.920;2023-10-19T00:16:01;97933.00;;;14.89;41.48
42519;BME280;28147;47.520;18.920;2023-10-19T00:18:32;97933.31;;;14.67;42.14
42519;BME280;28147;47.520;18.920;2023-10-19T00:21:00;97927.94;;;14.42;41.28
42519;BME280;28147;47.520;18.920;2023-10-19T00:23:36;97925.25;;;14.62;41.55
42519;BME280;28147;47.520;18.920;2023-10-19T00:26:05;97928.50;;;14.03;42.23
42519;BME280;28147;47.520;18.920;2023-10-19T00:28:40;97933.88;;;14.18;41.80
42519;BME280;28147;47.520;18.920;2023-10-19T00:31:06;97930.66;;;14.26;41.91
42519;BME280;28147;47.520;18.920;2023-10-19T00:33:36;97918.88;;;14.17;42.36
42519;BME280;28147;47.520;18.920;2023-10-19T00:36:08;97919.41;;;14.19;42.54
42519;BME280;28147;47.520;18.920;2023-10-19T00:38:39;97913.78;;;13.80;43.36
42519;BME280;28147;47.520;18.920;2023-10-19T00:41:09;97919.41;;;13.99;43.35
42519;BME280;28147;47.520;18.920;2023-10-19T00:43:35;97925.53;;;13.74;44.14
42519;BME280;28147;47.520;18.920;2023-10-19T00:46:10;97910.56;;;13.83;44.22
42519;BME280;28147;47.520;18.920;2023-10-19T00:49:00;97906.28;;;13.77;44.16
42519;BME280;28147;47.520;18.920;2023-10-19T00:51:29;97910.81;;;13.66;44.81
42519;BME280;28147;47.520;18.920;2023-10-19T00:53:58;97898.25;;;13.61;44.97
42519;BME280;28147;47.520;18.920;2023-10-19T00:56:25;97878.97;;;13.59;45.40
42519;BME280;28147;47.520;18.920;2023-10-19T00:58:57;97879.22;;;13.48;46.09
42519;BME280;28147;47.520;18.920;2023-10-19T01:01:33;97885.13;;;13.85;45.71
42519;BME280;28147;47.520;18.920;2023-10-19T01:04:05;97885.41;;;13.84;46.29
42519;BME280;28147;47.520;18.920;2023-10-19T01:06:31;97885.09;;;13.34;47.79
42519;BME280;28147;47.520;18.920;2023-10-19T01:08:58;97887.47;;;13.36;47.83
42519;BME280;28147;47.520;18.920;2023-10-19T01:11:23;97885.69;;;13.72;47.74
42519;BME280;28147;47.520;18.920;2023-10-19T01:13:53;97896.91;;;13.84;48.29
42519;BME280;28147;47.520;18.920;2023-10-19T01:16:19;97885.34;;;13.48;48.87
42519;BME280;28147;47.520;18.920;2023-10-19T01:18:51;97885.16;;;12.87;51.25
42519;BME280;28147;47.520;18.920;2023-10-19T01:21:23;97882.22;;;12.88;51.62
42519;BME280;28147;47.520;18.920;2023-10-19T01:24:06;97881.34;;;13.30;50.61
42519;BME280;28147;47.520;18.920;2023-10-19T01:26:33;97874.38;;;13.39;51.14
42519;BME280;28147;47.520;18.920;2023-10-19T01:29:02;97869.22;;;13.18;51.92
42519;BME280;28147;47.520;18.920;2023-10-19T01:31:34;97852.97;;;13.29;52.40
42519;BME280;28147;47.520;18.920;2023-10-19T01:34:04;97852.38;;;13.07;54.89
42519;BME280;28147;47.520;18.920;2023-10-19T01:36:35;97858.09;;;13.41;55.29
42519;BME280;28147;47.520;18.920;2023-10-19T01:39:09;97857.16;;;13.05;56.86
42519;BME280;28147;47.520;18.920;2023-10-19T01:41:36;97848.19;;;13.31;56.17
42519;BME280;28147;47.520;18.920;2023-10-19T01:44:02;97844.88;;;13.09;56.89
42519;BME280;28147;47.520;18.920;2023-10-19T01:46:38;97839.53;;;13.09;56.95
42519;BME280;28147;47.520;18.920;2023-10-19T01:49:05;97835.00;;;13.04;58.39
42519;BME280;28147;47.520;18.920;2023-10-19T01:51:34;97832.59;;;13.18;57.96
42519;BME280;28147;47.520;18.920;2023-10-19T01:54:06;97826.28;;;13.39;57.54
42519;BME280;28147;47.520;18.920;2023-10-19T01:56:32;97830.28;;;13.27;57.69
42519;BME280;28147;47.520;18.920;2023-10-19T01:59:04;97821.38;;;13.11;58.72
42519;BME280;28147;47.520;18.920;2023-10-19T02:01:31;97815.22;;;13.10;58.74
42519;BME280;28147;47.520;18.920;2023-10-19T02:04:05;97820.34;;;13.22;58.65
42519;BME280;28147;47.520;18.920;2023-10-19T02:06:33;97821.72;;;13.40;58.58
42519;BME280;28147;47.520;18.920;2023-10-19T02:09:00;97817.66;;;13.22;59.38
42519;BME280;28147;47.520;18.920;2023-10-19T02:11:34;97822.75;;;13.19;59.35
42519;BME280;28147;47.520;18.920;2023-10-19T02:14:03;97805.88;;;13.13;59.50
42519;BME280;28147;47.520;18.920;2023-10-19T02:16:33;97806.94;;;13.17;60.21
42519;BME280;28147;47.520;18.920;2023-10-19T02:18:58;97793.94;;;13.41;59.49
42519;BME280;28147;47.520;18.920;2023-10-19T02:21:26;97800.00;;;13.21;60.40
42519;BME280;28147;47.520;18.920;2023-10-19T02:23:59;97799.53;;;13.39;60.45
42519;BME280;28147;47.520;18.920;2023-10-19T02:26:24;97807.00;;;13.32;61.25
42519;BME280;28147;47.520;18.920;2023-10-19T02:28:52;97804.84;;;12.41;64.60
42519;BME280;28147;47.520;18.920;2023-10-19T02:31:19;97795.41;;;12.81;63.78
42519;BME280;28147;47.520;18.920;2023-10-19T02:33:56;97779.72;;;13.15;62.66
42519;BME280;28147;47.520;18.920;2023-10-19T02:36:25;97790.13;;;13.11;62.90
42519;BME280;28147;47.520;18.920;2023-10-19T02:38:55;97778.44;;;13.38;62.01
42519;BME280;28147;47.520;18.920;2023-10-19T02:41:24;97770.63;;;13.21;62.82
42519;BME280;28147;47.520;18.920;2023-10-19T02:43:49;97770.06;;;13.04;63.42
42519;BME280;28147;47.520;18.920;2023-10-19T02:46:30;97775.44;;;13.19;63.65
42519;BME280;28147;47.520;18.920;2023-10-19T02:49:03;97766.91;;;13.43;63.27
42519;BME280;28147;47.520;18.920;2023-10-19T02:51:29;97774.78;;;12.71;65.69
42519;BME280;28147;47.520;18.920;2023-10-19T02:53:56;97764.38;;;12.80;65.99
42519;BME280;28147;47.520;18.920;2023-10-19T02:56:22;97754.28;;;12.97;65.33
42519;BME280;28147;47.520;18.920;2023-10-19T02:58:49;97747.28;;;12.71;66.40
42519;BME280;28147;47.520;18.920;2023-10-19T03:01:16;97742.31;;;13.25;64.40
42519;BME280;28147;47.520;18.920;2023-10-19T03:03:54;97745.25;;;13.54;63.76
42519;BME280;28147;47.520;18.920;2023-10-19T03:06:23;97736.97;;;13.56;63.52
42519;BME280;28147;47.520;18.920;2023-10-19T03:08:49;97738.03;;;13.65;63.02
42519;BME280;28147;47.520;18.920;2023-10-19T03:11:26;97726.00;;;13.37;64.05
42519;BME280;28147;47.520;18.920;2023-10-19T03:13:55;97723.84;;;13.70;63.49
42519;BME280;28147;47.520;18.920;2023-10-19T03:16:22;97717.16;;;13.52;64.46
42519;BME280;28147;47.520;18.920;2023-10-19T03:18:49;97712.09;;;13.40;64.37
42519;BME280;28147;47.520;18.920;2023-10-19T03:21:16;97716.63;;;13.55;64.41
42519;BME280;28147;47.520;18.920;2023-10-19T03:23:44;97710.19;;;13.10;65.50
42519;BME280;28147;47.520;18.920;2023-10-19T03:26:09;97700.81;;;12.72;67.71
42519;BME280;28147;47.520;18.920;2023-10-19T03:28:56;97699.22;;;12.65;67.30
42519;BME280;28147;47.520;18.920;2023-10-19T03:31:23;97688.97;;;12.32;68.70
42519;BME280;28147;47.520;18.920;2023-10-19T03:33:52;97685.56;;;12.52;67.94
42519;BME280;28147;47.520;18.920;2023-10-19T03:36:23;97663.16;;;12.83;66.68
42519;BME280;28147;47.520;18.920;2023-10-19T03:38:49;97682.91;;;12.67;66.88
42519;BME280;28147;47.520;18.920;2023-10-19T03:41:19;97681.91;;;13.29;65.24
42519;BME280;28147;47.520;18.920;2023-10-19T03:43:54;97694.75;;;13.27;65.37
42519;BME280;28147;47.520;18.920;2023-10-19T03:46:20;97689.06;;;13.70;64.15
42519;BME280;28147;47.520;18.920;2023-10-19T03:49:03;97682.69;;;13.40;64.80
42519;BME280;28147;47.520;18.920;2023-10-19T03:51:36;97684.53;;;13.70;63.38
42519;BME280;28147;47.520;18.920;2023-10-19T03:54:20;97685.06;;;13.72;62.67
42519;BME280;28147;47.520;18.920;2023-10-19T03:56:50;97686.38;;;13.75;63.10
42519;BME280;28147;47.520;18.920;2023-10-19T03:59:16;97682.41;;;13.21;64.99
42519;BME280;28147;47.520;18.920;2023-10-19T04:01:42;97677.81;;;13.78;64.11
42519;BME280;28147;47.520;18.920;2023-10-19T04:04:09;97671.19;;;13.45;63.97
42519;BME280;28147;47.520;18.920;2023-10-19T04:06:35;97671.78;;;13.26;63.89
42519;BME280;28147;47.520;18.920;2023-10-19T04:09:02;97665.84;;;12.94;65.26
42519;BME280;28147;47.520;18.920;2023-10-19T04:11:29;97670.13;;;13.10;64.94
42519;BME280;28147;47.520;18.920;2023-10-19T04:13:59;97653.06;;;13.26;64.37
42519;BME280;28147;47.520;18.920;2023-10-19T04:16:29;97648.75;;;13.35;64.10
42519;BME280;28147;47.520;18.920;2023-10-19T04:18:56;97639.69;;;13.31;62.01
42519;BME280;28147;47.520;18.920;2023-10-19T04:21:23;97622.00;;;13.46;61.06
42519;BME280;28147;47.520;18.920;2023-10-19T04:23:48;97621.78;;;13.27;61.26
42519;BME280;28147;47.520;18.920;2023-10-19T04:26:14;97621.78;;;12.86;61.86
42519;BME280;28147;47.520;18.920;2023-10-19T04:28:43;97620.97;;;13.06;62.01
42519;BME280;28147;47.520;18.920;2023-10-19T04:31:18;97617.75;;;13.29;62.06
42519;BME280;28147;47.520;18.920;2023-10-19T04:33:44;97617.50;;;13.26;62.82
42519;BME280;28147;47.520;18.920;2023-10-19T04:36:13;97621.19;;;13.60;62.33
42519;BME280;28147;47.520;18.920;2023-10-19T04:38:39;97618.78;;;13.54;62.28
42519;BME280;28147;47.520;18.920;2023-10-19T04:41:08;97612.38;;;13.45;61.63
42519;BME280;28147;47.520;18.920;2023-10-19T04:43:38;97608.66;;;13.35;61.24
42519;BME280;28147;47.520;18.920;2023-10-19T04:46:09;97604.09;;;13.21;61.32
42519;BME280;28147;47.520;18.920;2023-10-19T04:48:41;97608.94;;;13.19;62.08
42519;BME280;28147;47.520;18.920;2023-10-19T04:51:08;97609.19;;;13.17;62.64
42519;BME280;28147;47.520;18.920;2023-10-19T04:53:35;97596.56;;;13.58;61.80
42519;BME280;28147;47.520;18.920;2023-10-19T04:56:02;97598.47;;;13.53;61.76
42519;BME280;28147;47.520;18.920;2023-10-19T04:58:29;97601.88;;;13.63;61.43
42519;BME280;28147;47.520;18.920;2023-10-19T05:00:54;97592.28;;;13.52;59.82
42519;BME280;28147;47.520;18.920;2023-10-19T05:03:20;97595.78;;;13.53;59.53
42519;BME280;28147;47.520;18.920;2023-10-19T05:05:45;97602.75;;;13.54;59.54
42519;BME280;28147;47.520;18.920;2023-10-19T05:08:11;97603.84;;;13.37;59.57
42519;BME280;28147;47.520;18.920;2023-10-19T05:10:36;97601.19;;;13.32;59.41
42519;BME280;28147;47.520;18.920;2023-10-19T05:13:02;97599.84;;;13.20;59.15
42519;BME280;28147;47.520;18.920;2023-10-19T05:15:28;97593.97;;;13.12;59.83
42519;BME280;28147;47.520;18.920;2023-10-19T05:17:54;97594.78;;;13.23;59.54
42519;BME280;28147;47.520;18.920;2023-10-19T05:20:19;97598.28;;;12.93;60.41
42519;BME280;28147;47.520;18.920;2023-10-19T05:22:47;97605.75;;;12.81;60.54
42519;BME280;28147;47.520;18.920;2023-10-19T05:25:12;97599.31;;;12.51;61.08
42519;BME280;28147;47.520;18.920;2023-10-19T05:27:38;97596.94;;;12.60;61.04
42519;BME280;28147;47.520;18.920;2023-10-19T05:30:05;97601.19;;;12.51;61.23
42519;BME280;28147;47.520;18.920;2023-10-19T05:32:30;97598.78;;;12.44;61.17
42519;BME280;28147;47.520;18.920;2023-10-19T05:34:56;97590.19;;;12.27;61.94
42519;BME280;28147;47.520;18.920;2023-10-19T05:37:22;97601.44;;;12.39;61.67
42519;BME280;28147;47.520;18.920;2023-10-19T05:39:48;97607.59;;;12.45;61.61
42519;BME280;28147;47.520;18.920;2023-10-19T05:42:17;97604.66;;;12.36;62.17
42519;BME280;28147;47.520;18.920;2023-10-19T05:44:43;97600.09;;;12.41;62.01
42519;BME280;28147;47.520;18.920;2023-10-19T05:47:08;97605.97;;;12.33;62.41
42519;BME280;28147;47.520;18.920;2023-10-19T05:49:33;97596.09;;;12.49;63.09
42519;BME280;28147;47.520;18.920;2023-10-19T05:51:59;97595.31;;;12.44;61.86
42519;BME280;28147;47.520;18.920;2023-10-19T05:54:24;97605.97;;;12.28;62.77
42519;BME280;28147;47.520;18.920;2023-10-19T05:56:50;97602.50;;;12.33;62.21
42519;BME280;28147;47.520;18.920;2023-10-19T05:59:17;97602.25;;;12.39;62.08
42519;BME280;28147;47.520;18.920;2023-10-19T06:01:42;97595.06;;;12.65;61.47
42519;BME280;28147;47.520;18.920;2023-10-19T06:04:11;97588.91;;;13.01;60.54
42519;BME280;28147;47.520;18.920;2023-10-19T06:06:38;97597.19;;;12.79;60.89
42519;BME280;28147;47.520;18.920;2023-10-19T06:09:05;97585.19;;;12.86;60.49
42519;BME280;28147;47.520;18.920;2023-10-19T06:11:33;97586.75;;;13.13;60.61
42519;BME280;28147;47.520;18.920;2023-10-19T06:13:59;97589.97;;;13.05;60.86
42519;BME280;28147;47.520;18.920;2023-10-19T06:16:25;97587.03;;;13.11;60.05
42519;BME280;28147;47.520;18.920;2023-10-19T06:18:50;97591.28;;;13.33;59.90
42519;BME280;28147;47.520;18.920;2023-10-19T06:21:19;97593.69;;;13.39;60.15
42519;BME280;28147;47.520;18.920;2023-10-19T06:23:47;97572.81;;;13.36;60.54
42519;BME280;28147;47.520;18.920;2023-10-19T06:26:13;97578.72;;;13.28;60.62
42519;BME280;28147;47.520;18.920;2023-10-19T06:28:39;97573.88;;;13.51;60.22
42519;BME280;28147;47.520;18.920;2023-10-19T06:31:06;97569.78;;;13.63;59.72
42519;BME280;28147;47.520;18.920;2023-10-19T06:33:31;97576.66;;;13.85;59.53
42519;BME280;28147;47.520;18.920;2023-10-19T06:35:58;97575.84;;;13.90;59.50
42519;BME280;28147;47.520;18.920;2023-10-19T06:38:24;97575.16;;;13.63;60.10
42519;BME280;28147;47.520;18.920;2023-10-19T06:40:51;97583.63;;;13.91;59.19
42519;BME280;28147;47.520;18.920;2023-10-19T06:43:16;97584.38;;;13.97;58.84
42519;BME280;28147;47.520;18.920;2023-10-19T06:45:44;97581.50;;;13.78;59.05
42519;BME280;28147;47.520;18.920;2023-10-19T06:48:10;97582.47;;;13.37;60.21
42519;BME280;28147;47.520;18.920;2023-10-19T06:50:36;97574.84;;;13.75;59.72
42519;BME280;28147;47.520;18.920;2023-10-19T06:53:03;97574.81;;;13.80;59.48
42519;BME280;28147;47.520;18.920;2023-10-19T06:55:30;97561.38;;;13.31;61.47
42519;BME280;28147;47.520;18.920;2023-10-19T06:57:56;97553.25;;;13.61;60.60
42519;BME280;28147;47.520;18.920;2023-10-19T07:00:23;97552.13;;;13.73;59.89
42519;BME280;28147;47.520;18.920;2023-10-19T07:02:52;97549.31;;;13.38;60.45
42519;BME280;28147;47.520;18.920;2023-10-19T07:05:19;97556.13;;;13.70;59.90
42519;BME280;28147;47.520;18.920;2023-10-19T07:07:51;97551.06;;;13.63;60.29
42519;BME280;28147;47.520;18.920;2023-10-19T07:10:18;97548.38;;;13.79;60.18
42519;BME280;28147;47.520;18.920;2023-10-19T07:12:46;97547.53;;;13.83;60.17
42519;BME280;28147;47.520;18.920;2023-10-19T07:15:12;97542.50;;;13.72;60.38
42519;BME280;28147;47.520;18.920;2023-10-19T07:17:41;97543.16;;;14.03;59.58
42519;BME280;28147;47.520;18.920;2023-10-19T07:20:08;97547.38;;;13.54;60.47
42519;BME280;28147;47.520;18.920;2023-10-19T07:22:35;97536.84;;;13.78;60.04
42519;BME280;28147;47.520;18.920;2023-10-19T07:25:05;97535.94;;;13.98;59.72
42519;BME280;28147;47.520;18.920;2023-10-19T07:27:31;97537.50;;;13.50;60.45
42519;BME280;28147;47.520;18.920;2023-10-19T07:29:57;97528.31;;;13.76;60.05
42519;BME280;28147;47.520;18.920;2023-10-19T07:32:22;97533.69;;;13.66;60.51
42519;BME280;28147;47.520;18.920;2023-10-19T07:34:48;97527.34;;;13.47;61.60
42519;BME280;28147;47.520;18.920;2023-10-19T07:37:14;97522.16;;;13.71;61.58
42519;BME280;28147;47.520;18.920;2023-10-19T07:39:48;97521.69;;;13.58;61.86
42519;BME280;28147;47.520;18.920;2023-10-19T07:42:15;97529.56;;;13.94;61.24
42519;BME280;28147;47.520;18.920;2023-10-19T07:44:41;97526.88;;;13.94;61.96
42519;BME280;28147;47.520;18.920;2023-10-19T07:47:06;97517.25;;;14.32;60.45
42519;BME280;28147;47.520;18.920;2023-10-19T07:49:35;97510.28;;;14.31;60.57
42519;BME280;28147;47.520;18.920;2023-10-19T07:52:06;97512.34;;;14.45;60.59
42519;BME280;28147;47.520;18.920;2023-10-19T07:54:35;97509.09;;;14.48;61.04
42519;BME280;28147;47.520;18.920;2023-10-19T07:57:01;97498.66;;;14.46;61.02
42519;BME280;28147;47.520;18.920;2023-10-19T07:59:37;97506.41;;;14.53;60.91
42519;BME280;28147;47.520;18.920;2023-10-19T08:02:03;97505.16;;;14.40;61.24
42519;BME280;28147;47.520;18.920;2023-10-19T08:04:29;97499.56;;;14.36;61.22
42519;BME280;28147;47.520;18.920;2023-10-19T08:06:59;97493.16;;;14.32;60.23
42519;BME280;28147;47.520;18.920;2023-10-19T08:09:24;97500.16;;;14.28;59.96
42519;BME280;28147;47.520;18.920;2023-10-19T08:11:56;97492.00;;;14.44;59.58
42519;BME280;28147;47.520;18.920;2023-10-19T08:14:27;97492.38;;;14.66;58.82
42519;BME280;28147;47.520;18.920;2023-10-19T08:16:53;97489.31;;;14.44;59.77
42519;BME280;28147;47.520;18.920;2023-10-19T08:19:19;97485.25;;;14.17;60.85
42519;BME280;28147;47.520;18.920;2023-10-19T08:21:45;97494.91;;;14.52;60.28
42519;BME280;28147;47.520;18.920;2023-10-19T08:24:10;97487.69;;;14.77;60.65
42519;BME280;28147;47.520;18.920;2023-10-19T08:26:39;97486.34;;;14.79;59.64
42519;BME280;28147;47.520;18.920;2023-10-19T08:29:07;97496.91;;;14.95;59.45
42519;BME280;28147;47.520;18.920;2023-10-19T08:31:39;97481.78;;;14.80;59.00
42519;BME280;28147;47.520;18.920;2023-10-19T08:34:05;97471.88;;;15.04;58.44
42519;BME280;28147;47.520;18.920;2023-10-19T08:36:31;97465.91;;;15.13;58.47
42519;BME280;28147;47.520;18.920;2023-10-19T08:38:56;97475.38;;;15.05;58.75
42519;BME280;28147;47.520;18.920;2023-10-19T08:41:22;97469.66;;;15.12;58.63
42519;BME280;28147;47.520;18.920;2023-10-19T08:43:49;97463.88;;;14.99;58.43
42519;BME280;28147;47.520;18.920;2023-10-19T08:46:16;97458.75;;;15.03;58.40
42519;BME280;28147;47.520;18.920;2023-10-19T08:48:42;97454.28;;;15.41;57.74
42519;BME280;28147;47.520;18.920;2023-10-19T08:51:12;97450.75;;;15.46;58.20
42519;BME280;28147;47.520;18.920;2023-10-19T08:53:38;97446.88;;;15.33;58.76
42519;BME280;28147;47.520;18.920;2023-10-19T08:56:08;97442.28;;;15.57;58.38
42519;BME280;28147;47.520;18.920;2023-10-19T08:58:34;97438.75;;;15.81;57.43
42519;BME280;28147;47.520;18.920;2023-10-19T09:00:59;97444.69;;;15.78;57.25
42519;BME280;28147;47.520;18.920;2023-10-19T09:03:31;97440.66;;;15.38;57.69
42519;BME280;28147;47.520;18.920;2023-10-19T09:06:01;97433.81;;;15.88;57.07
42519;BME280;28147;47.520;18.920;2023-10-19T09:08:27;97439.97;;;16.08;56.77
42519;BME280;28147;47.520;18.920;2023-10-19T09:11:06;97438.84;;;15.52;58.16
42519;BME280;28147;47.520;18.920;2023-10-19T09:16:13;97430.03;;;15.70;57.88
42519;BME280;28147;47.520;18.920;2023-10-19T09:18:39;97429.09;;;16.32;56.28
42519;BME280;28147;47.520;18.920;2023-10-19T09:21:06;97439.34;;;16.29;56.10
42519;BME280;28147;47.520;18.920;2023-10-19T09:23:34;97434.84;;;16.25;56.31
42519;BME280;28147;47.520;18.920;2023-10-19T09:26:01;97436.94;;;16.28;56.68
42519;BME280;28147;47.520;18.920;2023-10-19T09:28:36;97428.22;;;16.36;56.43
42519;BME280;28147;47.520;18.920;2023-10-19T09:31:03;97430.81;;;17.15;54.83
42519;BME280;28147;47.520;18.920;2023-10-19T09:33:31;97440.56;;;17.25;55.13
42519;BME280;28147;47.520;18.920;2023-10-19T09:36:03;97431.66;;;18.02;53.80
42519;BME280;28147;47.520;18.920;2023-10-19T09:38:47;97425.38;;;16.60;57.27
42519;BME280;28147;47.520;18.920;2023-10-19T09:41:15;97415.97;;;16.44;57.61
42519;BME280;28147;47.520;18.920;2023-10-19T09:43:44;97404.72;;;15.57;60.17
42519;BME280;28147;47.520;18.920;2023-10-19T09:46:11;97412.28;;;16.40;58.29
42519;BME280;28147;47.520;18.920;2023-10-19T09:48:40;97415.44;;;16.61;57.93
42519;BME280;28147;47.520;18.920;2023-10-19T09:51:11;97406.28;;;16.62;58.51
42519;BME280;28147;47.520;18.920;2023-10-19T09:53:38;97400.16;;;16.75;58.45
42519;BME280;28147;47.520;18.920;2023-10-19T09:56:06;97400.06;;;16.01;59.98
42519;BME280;28147;47.520;18.920;2023-10-19T09:58:38;97389.94;;;16.44;59.20
42519;BME280;28147;47.520;18.920;2023-10-19T10:01:05;97386.38;;;16.16;60.66
42519;BME280;28147;47.520;18.920;2023-10-19T10:03:52;97386.41;;;17.04;58.00
42519;BME280;28147;47.520;18.920;2023-10-19T10:06:29;97383.63;;;17.09;55.76
42519;BME280;28147;47.520;18.920;2023-10-19T10:08:55;97379.78;;;17.38;54.92
42519;BME280;28147;47.520;18.920;2023-10-19T10:11:26;97363.84;;;17.78;54.43
42519;BME280;28147;47.520;18.920;2023-10-19T10:13:52;97375.00;;;17.35;55.01
42519;BME280;28147;47.520;18.920;2023-10-19T10:16:28;97364.84;;;17.68;54.25
42519;BME280;28147;47.520;18.920;2023-10-19T10:18:59;97353.06;;;16.91;56.22
42519;BME280;28147;47.520;18.920;2023-10-19T10:21:29;97359.28;;;16.59;57.67
42519;BME280;28147;47.520;18.920;2023-10-19T10:23:58;97348.06;;;16.71;57.50
42519;BME280;28147;47.520;18.920;2023-10-19T10:26:27;97348.66;;;16.82;58.03
42519;BME280;28147;47.520;18.920;2023-10-19T10:31:35;97320.22;;;16.81;57.96
42519;BME280;28147;47.520;18.920;2023-10-19T10:34:08;97340.75;;;17.26;56.93
42519;BME280;28147;47.520;18.920;2023-10-19T10:36:57;97334.50;;;17.17;56.04
42519;BME280;28147;47.520;18.920;2023-10-19T10:39:25;97331.44;;;16.55;58.47
42519;BME280;28147;47.520;18.920;2023-10-19T10:41:56;97327.47;;;16.94;57.35
42519;BME280;28147;47.520;18.920;2023-10-19T10:44:35;97322.22;;;16.75;56.72
42519;BME280;28147;47.520;18.920;2023-10-19T10:47:00;97310.44;;;16.85;56.32
42519;BME280;28147;47.520;18.920;2023-10-19T10:49:26;97321.59;;;16.92;56.43
42519;BME280;28147;47.520;18.920;2023-10-19T10:51:54;97313.38;;;16.74;56.24
42519;BME280;28147;47.520;18.920;2023-10-19T10:54:22;97300.09;;;16.64;56.60
42519;BME280;28147;47.520;18.920;2023-10-19T10:56:49;97287.63;;;16.96;55.90
42519;BME280;28147;47.520;18.920;2023-10-19T10:59:15;97293.81;;;16.27;58.61
42519;BME280;28147;47.520;18.920;2023-10-19T11:01:40;97294.31;;;16.85;57.16
42519;BME280;28147;47.520;18.920;2023-10-19T11:04:11;97288.28;;;17.15;56.57
42519;BME280;28147;47.520;18.920;2023-10-19T11:06:50;97300.16;;;18.35;54.34
42519;BME280;28147;47.520;18.920;2023-10-19T11:09:16;97287.19;;;18.06;54.21
42519;BME280;28147;47.520;18.920;2023-10-19T11:11:45;97280.75;;;17.62;54.87
42519;BME280;28147;47.520;18.920;2023-10-19T11:14:11;97278.84;;;17.85;54.85
42519;BME280;28147;47.520;18.920;2023-10-19T11:16:36;97274.47;;;17.98;54.55
42519;BME280;28147;47.520;18.920;2023-10-19T11:19:04;97267.47;;;17.88;55.38
42519;BME280;28147;47.520;18.920;2023-10-19T11:21:29;97273.50;;;17.49;55.61
42519;BME280;28147;47.520;18.920;2023-10-19T11:23:55;97282.09;;;17.51;55.18
42519;BME280;28147;47.520;18.920;2023-10-19T11:26:23;97265.81;;;17.79;54.86
42519;BME280;28147;47.520;18.920;2023-10-19T11:29:02;97262.56;;;17.90;54.64
42519;BME280;28147;47.520;18.920;2023-10-19T11:31:29;97257.97;;;17.68;55.06
42519;BME280;28147;47.520;18.920;2023-10-19T11:34:03;97252.31;;;17.47;56.00
42519;BME280;28147;47.520;18.920;2023-10-19T11:36:29;97248.44;;;17.40;56.21
42519;BME280;28147;47.520;18.920;2023-10-19T11:38:54;97240.72;;;17.69;55.75
42519;BME280;28147;47.520;18.920;2023-10-19T11:41:20;97236.44;;;17.91;55.71
42519;BME280;28147;47.520;18.920;2023-10-19T11:43:47;97239.13;;;17.23;57.44
42519;BME280;28147;47.520;18.920;2023-10-19T11:46:13;97237.56;;;17.45;56.41
42519;BME280;28147;47.520;18.920;2023-10-19T11:48:40;97240.00;;;17.10;56.46
42519;BME280;28147;47.520;18.920;2023-10-19T11:51:07;97250.94;;;17.14;56.13
42519;BME280;28147;47.520;18.920;2023-10-19T11:53:35;97239.25;;;17.18;55.61
42519;BME280;28147;47.520;18.920;2023-10-19T11:56:06;97235.59;;;17.14;56.29
42519;BME280;28147;47.520;18.920;2023-10-19T11:58:36;97243.84;;;17.18;57.28
42519;BME280;28147;47.520;18.920;2023-10-19T12:01:03;97228.66;;;16.99;57.21
42519;BME280;28147;47.520;18.920;2023-10-19T12:03:40;97226.19;;;17.25;56.48
42519;BME280;28147;47.520;18.920;2023-10-19T12:06:07;97224.09;;;17.00;58.06
42519;BME280;28147;47.520;18.920;2023-10-19T12:08:34;97210.56;;;17.27;57.01
42519;BME280;28147;47.520;18.920;2023-10-19T12:10:59;97208.88;;;17.63;56.69
42519;BME280;28147;47.520;18.920;2023-10-19T12:13:27;97201.09;;;17.61;56.44
42519;BME280;28147;47.520;18.920;2023-10-19T12:15:53;97206.16;;;17.85;56.19
42519;BME280;28147;47.520;18.920;2023-10-19T12:18:20;97181.16;;;17.93;56.41
42519;BME280;28147;47.520;18.920;2023-10-19T12:20:46;97186.34;;;17.81;56.23
42519;BME280;28147;47.520;18.920;2023-10-19T12:23:13;97185.91;;;17.34;56.97
42519;BME280;28147;47.520;18.920;2023-10-19T12:25:39;97174.34;;;17.65;56.59
42519;BME280;28147;47.520;18.920;2023-10-19T12:28:07;97170.44;;;17.40;57.00
42519;BME280;28147;47.520;18.920;2023-10-19T12:30:33;97179.13;;;17.37;57.57
42519;BME280;28147;47.520;18.920;2023-10-19T12:33:03;97187.94;;;17.06;58.41
42519;BME280;28147;47.520;18.920;2023-10-19T12:35:33;97182.13;;;17.13;58.24
42519;BME280;28147;47.520;18.920;2023-10-19T12:38:15;97174.16;;;16.85;58.92
42519;BME280;28147;47.520;18.920;2023-10-19T12:40:45;97165.56;;;16.61;59.97
42519;BME280;28147;47.520;18.920;2023-10-19T12:43:12;97165.47;;;16.88;59.14
42519;BME280;28147;47.520;18.920;2023-10-19T12:45:38;97172.16;;;16.91;59.48
42519;BME280;28147;47.520;18.920;2023-10-19T12:48:04;97160.44;;;16.73;59.47
42519;BME280;28147;47.520;18.920;2023-10-19T12:50:35;97154.34;;;16.45;60.39
42519;BME280;28147;47.520;18.920;2023-10-19T12:53:01;97170.28;;;16.77;59.51
42519;BME280;28147;47.520;18.920;2023-10-19T12:55:27;97161.47;;;16.99;58.85
42519;BME280;28147;47.520;18.920;2023-10-19T12:57:53;97157.94;;;16.90;59.53
42519;BME280;28147;47.520;18.920;2023-10-19T13:00:19;97158.63;;;17.05;58.73
42519;BME280;28147;47.520;18.920;2023-10-19T13:03:01;97159.69;;;17.17;58.95